METAR Formatted Surface Weather Observation
Issued by NWS

Home | Current Version | Previous Version | Text Only | Print | Product List | Glossary On
Versions: 1 2
784
SAUS41 KRLX 280657
MTRCKB
METAR KCKB 280653Z AUTO 00000KT 10SM CLR 08/07 A2995 RMK AO2 SLP134
T00830072 TSNO



USA.gov is the U.S. government's official web portal to all federal, state and local government web resources and services.